Time;durP1;ratioP1;P1;durP2;ratioP2;P2;SDS_P1;SDS_P2;PMS_P1;PMS_P2;Temp;Humidity;BMP_temperature;BMP_pressure;BME280_temperature;BME280_humidity;BME280_pressure;Samples;Min_cycle;Max_cycle;Signal;HPM_P1;HPM_P2
2022/07/20 00:00:25;;;;;;;11.52;3.45;;;;;;;;;;4974995;28;20026;-70
2022/07/20 00:02:51;;;;;;;12.63;3.80;;;;;;;;;;4974624;28;20043;-71
2022/07/20 00:05:17;;;;;;;13.35;3.78;;;;;;;;;;4974708;28;20052;-71
2022/07/20 00:07:43;;;;;;;8.13;2.70;;;;;;;;;;4974674;28;20543;-71
2022/07/20 00:12:54;;;;;;;12.10;3.47;;;;;;;;;;4974285;28;20045;-71
2022/07/20 00:15:20;;;;;;;9.88;3.40;;;;;;;;;;4974578;28;20102;-71
2022/07/20 00:17:46;;;;;;;16.05;3.63;;;;;;;;;;4974537;28;20544;-71
2022/07/20 00:20:12;;;;;;;10.85;3.17;;;;;;;;;;4974486;28;20109;-70
2022/07/20 00:22:38;;;;;;;12.23;3.83;;;;;;;;;;4957104;28;20405;-71
2022/07/20 00:25:04;;;;;;;13.27;3.10;;;;;;;;;;4974395;28;20041;-70
2022/07/20 00:27:30;;;;;;;10.93;4.18;;;;;;;;;;4974399;28;20034;-71
2022/07/20 00:29:56;;;;;;;10.95;3.38;;;;;;;;;;4974404;28;20027;-71
2022/07/20 00:32:22;;;;;;;12.90;3.22;;;;;;;;;;4974354;28;20477;-71
2022/07/20 00:34:48;;;;;;;12.00;3.63;;;;;;;;;;4974363;28;20027;-71
2022/07/20 00:37:14;;;;;;;15.52;4.13;;;;;;;;;;4975043;28;20027;-70
2022/07/20 00:39:40;;;;;;;11.13;3.45;;;;;;;;;;4956926;28;20019;-71
2022/07/20 00:42:06;;;;;;;8.07;3.28;;;;;;;;;;4974253;28;20027;-71
2022/07/20 00:44:32;;;;;;;8.45;3.50;;;;;;;;;;4974232;28;20018;-71
2022/07/20 00:46:58;;;;;;;9.65;3.38;;;;;;;;;;4974499;28;20033;-71
2022/07/20 00:49:24;;;;;;;12.52;3.45;;;;;;;;;;4974192;28;20539;-71
2022/07/20 00:51:50;;;;;;;9.77;3.65;;;;;;;;;;4977362;28;20081;-71
2022/07/20 00:54:16;;;;;;;9.88;3.13;;;;;;;;;;4978680;28;20023;-71
2022/07/20 00:56:42;;;;;;;10.20;3.72;;;;;;;;;;4978663;28;20035;-71
2022/07/20 00:59:09;;;;;;;10.63;3.58;;;;;;;;;;4978070;28;20125;-71
2022/07/20 01:01:36;;;;;;;10.32;3.55;;;;;;;;;;4978494;28;20487;-71
2022/07/20 01:04:02;;;;;;;7.72;3.42;;;;;;;;;;4976932;28;20042;-72
2022/07/20 01:06:28;;;;;;;12.18;3.67;;;;;;;;;;4976637;28;20114;-71
2022/07/20 01:08:54;;;;;;;21.73;4.15;;;;;;;;;;4977145;28;20051;-71
2022/07/20 01:11:21;;;;;;;10.38;2.95;;;;;;;;;;4976846;28;20058;-70
2022/07/20 01:13:47;;;;;;;12.00;3.90;;;;;;;;;;4976466;28;20031;-71
2022/07/20 01:16:13;;;;;;;8.05;3.33;;;;;;;;;;4976495;28;20027;-71
2022/07/20 01:18:39;;;;;;;10.18;3.67;;;;;;;;;;4976483;28;20023;-71
2022/07/20 01:21:06;;;;;;;13.35;3.75;;;;;;;;;;4976429;28;20082;-71
2022/07/20 01:23:32;;;;;;;12.30;3.40;;;;;;;;;;4976938;28;20019;-71
2022/07/20 01:25:59;;;;;;;10.75;3.85;;;;;;;;;;4976365;28;20077;-71
2022/07/20 01:28:25;;;;;;;7.65;3.45;;;;;;;;;;4976329;28;20150;-71
2022/07/20 01:30:51;;;;;;;12.68;4.03;;;;;;;;;;4976278;28;20130;-71
2022/07/20 01:33:18;;;;;;;9.23;3.60;;;;;;;;;;4976427;28;20386;-71
2022/07/20 01:35:44;;;;;;;11.25;3.53;;;;;;;;;;4976196;28;20373;-71
2022/07/20 01:38:10;;;;;;;8.18;3.90;;;;;;;;;;4976724;28;20504;-71
2022/07/20 01:40:36;;;;;;;11.65;3.28;;;;;;;;;;4976391;28;20031;-71
2022/07/20 01:43:02;;;;;;;10.13;3.88;;;;;;;;;;4976105;28;20031;-70
2022/07/20 01:45:28;;;;;;;9.38;3.22;;;;;;;;;;4976051;28;20038;-71
2022/07/20 01:47:54;;;;;;;8.82;3.72;;;;;;;;;;4976313;28;20022;-70
2022/07/20 01:50:20;;;;;;;10.80;3.58;;;;;;;;;;4976002;28;20038;-71
2022/07/20 01:52:46;;;;;;;8.57;3.92;;;;;;;;;;4976136;28;20027;-71
2022/07/20 01:55:12;;;;;;;7.63;3.15;;;;;;;;;;4958551;28;20030;-71
2022/07/20 01:57:38;;;;;;;9.38;3.63;;;;;;;;;;4976121;28;20029;-71
2022/07/20 02:00:05;;;;;;;7.10;3.40;;;;;;;;;;4975952;28;20026;-71
2022/07/20 02:02:31;;;;;;;7.18;3.28;;;;;;;;;;4934757;28;1180995;-71
2022/07/20 02:04:57;;;;;;;6.90;3.53;;;;;;;;;;4977183;28;20023;-71
2022/07/20 02:07:24;;;;;;;10.88;3.38;;;;;;;;;;4976863;28;20027;-71
2022/07/20 02:09:49;;;;;;;6.30;3.42;;;;;;;;;;4977069;28;20022;-71
2022/07/20 02:12:15;;;;;;;7.80;3.50;;;;;;;;;;4959255;28;20035;-71
2022/07/20 02:14:41;;;;;;;9.80;4.30;;;;;;;;;;4976692;28;20023;-71
2022/07/20 02:17:08;;;;;;;6.05;3.17;;;;;;;;;;4976637;28;20023;-70
2022/07/20 02:19:34;;;;;;;7.38;3.70;;;;;;;;;;4976875;28;20030;-71
2022/07/20 02:22:00;;;;;;;7.25;3.78;;;;;;;;;;4976558;28;20023;-71
2022/07/20 02:24:25;;;;;;;10.70;4.25;;;;;;;;;;4976500;28;20475;-70
2022/07/20 02:26:51;;;;;;;8.27;3.50;;;;;;;;;;4976482;28;20141;-71
2022/07/20 02:29:17;;;;;;;9.85;3.92;;;;;;;;;;4976697;28;20023;-71
2022/07/20 02:31:43;;;;;;;9.95;4.20;;;;;;;;;;4976365;28;20405;-71
2022/07/20 02:34:09;;;;;;;8.38;3.60;;;;;;;;;;4976255;28;20022;-71
2022/07/20 02:36:35;;;;;;;8.60;3.78;;;;;;;;;;4976577;28;20030;-71
2022/07/20 02:39:02;;;;;;;9.23;3.78;;;;;;;;;;4977042;28;20023;-71
2022/07/20 02:41:28;;;;;;;9.65;3.63;;;;;;;;;;4976203;28;20027;-71
2022/07/20 02:43:53;;;;;;;7.88;3.80;;;;;;;;;;4976168;28;20042;-71
2022/07/20 02:46:19;;;;;;;9.15;4.07;;;;;;;;;;4976155;28;20493;-71
2022/07/20 02:48:46;;;;;;;7.40;3.53;;;;;;;;;;4976138;28;20038;-71
2022/07/20 02:51:12;;;;;;;8.30;3.38;;;;;;;;;;4976334;28;20039;-71
2022/07/20 02:53:37;;;;;;;7.85;3.08;;;;;;;;;;4975966;28;20027;-71
2022/07/20 02:56:04;;;;;;;6.05;3.65;;;;;;;;;;4975941;28;20451;-71
2022/07/20 02:58:30;;;;;;;9.00;3.67;;;;;;;;;;4975891;28;20026;-71
2022/07/20 03:00:57;;;;;;;7.75;3.45;;;;;;;;;;4975764;28;20026;-71
2022/07/20 03:03:23;;;;;;;8.52;3.78;;;;;;;;;;4958271;28;20512;-71
2022/07/20 03:05:49;;;;;;;7.53;3.40;;;;;;;;;;4975741;28;20054;-71
2022/07/20 03:08:15;;;;;;;6.47;3.83;;;;;;;;;;4975711;28;20027;-71
2022/07/20 03:10:41;;;;;;;10.25;3.78;;;;;;;;;;4975665;28;20030;-70
2022/07/20 03:13:07;;;;;;;7.32;3.67;;;;;;;;;;4975061;28;20429;-71
2022/07/20 03:15:33;;;;;;;7.65;3.50;;;;;;;;;;4975588;28;20053;-71
2022/07/20 03:18:00;;;;;;;7.78;3.15;;;;;;;;;;4975569;28;20078;-71
2022/07/20 03:20:27;;;;;;;7.07;3.42;;;;;;;;;;4975790;28;20033;-71
2022/07/20 03:22:53;;;;;;;9.50;3.30;;;;;;;;;;4975735;28;20097;-71
2022/07/20 03:25:19;;;;;;;7.47;3.67;;;;;;;;;;4975721;28;20035;-71
2022/07/20 03:27:45;;;;;;;7.25;4.13;;;;;;;;;;4975412;28;20030;-71
2022/07/20 03:30:12;;;;;;;7.43;3.53;;;;;;;;;;4958016;28;20027;-71
2022/07/20 03:32:38;;;;;;;6.22;3.65;;;;;;;;;;4975238;28;20030;-71
2022/07/20 03:35:04;;;;;;;6.15;3.75;;;;;;;;;;4975515;28;20026;-71
2022/07/20 03:37:30;;;;;;;9.82;3.83;;;;;;;;;;4957826;28;20074;-71
2022/07/20 03:39:56;;;;;;;7.32;3.60;;;;;;;;;;4958336;28;20504;-71
2022/07/20 03:42:22;;;;;;;7.80;3.25;;;;;;;;;;4975101;28;20054;-71
2022/07/20 03:44:48;;;;;;;9.48;4.60;;;;;;;;;;4957747;28;20031;-71
2022/07/20 03:47:14;;;;;;;6.38;4.00;;;;;;;;;;4957657;28;20034;-71
2022/07/20 03:49:40;;;;;;;9.40;3.80;;;;;;;;;;4975545;28;20037;-70
2022/07/20 03:52:06;;;;;;;7.57;3.60;;;;;;;;;;4974859;28;20105;-71
2022/07/20 03:54:32;;;;;;;7.20;3.80;;;;;;;;;;4974921;28;20061;-71
2022/07/20 03:56:58;;;;;;;6.43;3.78;;;;;;;;;;4957543;28;20058;-71
2022/07/20 03:59:24;;;;;;;7.63;4.03;;;;;;;;;;4974748;28;20389;-71
2022/07/20 04:01:50;;;;;;;6.20;3.78;;;;;;;;;;4974779;28;20027;-71
2022/07/20 04:04:16;;;;;;;10.82;4.10;;;;;;;;;;4974382;28;20062;-71
2022/07/20 04:06:42;;;;;;;10.98;4.22;;;;;;;;;;4974736;28;20492;-71
2022/07/20 04:09:08;;;;;;;11.70;4.35;;;;;;;;;;4957330;28;20117;-71
2022/07/20 04:11:35;;;;;;;10.68;4.60;;;;;;;;;;4974933;28;20038;-71
2022/07/20 04:14:01;;;;;;;8.95;4.22;;;;;;;;;;4957208;28;20031;-72
2022/07/20 04:16:27;;;;;;;10.15;4.38;;;;;;;;;;4974817;28;20030;-71
2022/07/20 04:18:53;;;;;;;8.73;3.65;;;;;;;;;;4974522;28;20102;-71
2022/07/20 04:21:19;;;;;;;5.72;3.60;;;;;;;;;;4974765;28;20168;-71
2022/07/20 04:23:45;;;;;;;8.30;4.38;;;;;;;;;;4974448;28;20182;-71
2022/07/20 04:26:13;;;;;;;7.80;4.50;;;;;;;;;;4974938;28;20067;-71
2022/07/20 04:28:39;;;;;;;8.88;4.22;;;;;;;;;;4956840;28;20031;-71
2022/07/20 04:31:05;;;;;;;10.18;4.22;;;;;;;;;;4974379;28;20117;-71
2022/07/20 04:33:31;;;;;;;6.85;4.03;;;;;;;;;;4974615;28;20110;-72
2022/07/20 04:35:57;;;;;;;8.45;4.22;;;;;;;;;;4974627;28;20054;-71
2022/07/20 04:38:23;;;;;;;8.95;4.75;;;;;;;;;;4974833;28;20033;-71
2022/07/20 04:40:49;;;;;;;9.93;4.22;;;;;;;;;;4974604;28;20106;-71
2022/07/20 04:43:15;;;;;;;8.73;4.20;;;;;;;;;;4974304;28;20507;-71
2022/07/20 04:45:41;;;;;;;9.77;4.20;;;;;;;;;;4974253;28;20522;-70
2022/07/20 04:48:07;;;;;;;8.60;3.45;;;;;;;;;;4974249;28;20027;-71
2022/07/20 04:50:33;;;;;;;6.43;4.13;;;;;;;;;;4974165;28;20113;-71
2022/07/20 04:52:59;;;;;;;8.10;3.55;;;;;;;;;;4956771;28;20023;-71
2022/07/20 04:55:25;;;;;;;8.60;3.80;;;;;;;;;;4974200;28;20118;-71
2022/07/20 04:57:51;;;;;;;9.68;4.30;;;;;;;;;;4974479;28;20098;-71
2022/07/20 05:00:17;;;;;;;8.10;4.20;;;;;;;;;;4974108;28;20066;-70
2022/07/20 05:02:43;;;;;;;8.98;4.32;;;;;;;;;;4974150;28;20516;-71
2022/07/20 05:05:09;;;;;;;8.50;3.88;;;;;;;;;;4974118;28;20031;-71
2022/07/20 05:07:35;;;;;;;16.50;4.72;;;;;;;;;;4974594;28;20023;-71
2022/07/20 05:10:01;;;;;;;13.02;4.22;;;;;;;;;;4974313;28;20037;-71
2022/07/20 05:12:27;;;;;;;10.07;4.18;;;;;;;;;;4973965;28;20366;-71
2022/07/20 05:14:53;;;;;;;12.38;4.30;;;;;;;;;;4974003;28;20034;-70
2022/07/20 05:17:19;;;;;;;12.70;4.68;;;;;;;;;;4956649;28;20027;-70
2022/07/20 05:19:45;;;;;;;11.25;4.22;;;;;;;;;;4974288;28;20031;-70
2022/07/20 05:22:11;;;;;;;13.20;4.68;;;;;;;;;;4973938;28;20441;-71
2022/07/20 05:24:37;;;;;;;6.72;4.20;;;;;;;;;;4973951;28;20023;-71
2022/07/20 05:27:03;;;;;;;10.85;4.22;;;;;;;;;;4974137;28;20023;-71
2022/07/20 05:29:29;;;;;;;9.70;4.38;;;;;;;;;;4973900;28;20027;-71
2022/07/20 05:31:55;;;;;;;10.38;3.80;;;;;;;;;;4973860;28;20030;-71
2022/07/20 05:34:21;;;;;;;10.20;4.70;;;;;;;;;;4973829;28;20058;-71
2022/07/20 05:36:47;;;;;;;12.00;4.75;;;;;;;;;;4957838;28;20496;-71
2022/07/20 05:39:13;;;;;;;11.65;5.63;;;;;;;;;;4977856;28;20109;-71
2022/07/20 05:41:40;;;;;;;10.68;4.35;;;;;;;;;;4977565;28;20093;-71
2022/07/20 05:44:06;;;;;;;7.32;4.32;;;;;;;;;;4977548;28;20035;-71
2022/07/20 05:46:32;;;;;;;9.45;5.07;;;;;;;;;;4977244;28;20512;-70
2022/07/20 05:48:58;;;;;;;10.60;4.88;;;;;;;;;;4977190;28;20031;-70
2022/07/20 05:51:24;;;;;;;9.43;4.80;;;;;;;;;;4977434;28;20027;-71
2022/07/20 05:53:50;;;;;;;11.38;5.13;;;;;;;;;;4977210;28;20031;-71
2022/07/20 05:56:16;;;;;;;9.82;4.93;;;;;;;;;;4977015;28;20023;-70
2022/07/20 05:58:42;;;;;;;8.75;4.88;;;;;;;;;;4977305;28;20027;-71
2022/07/20 06:01:08;;;;;;;10.13;4.97;;;;;;;;;;4976889;28;20531;-71
2022/07/20 06:03:34;;;;;;;10.10;4.22;;;;;;;;;;4976860;28;20138;-71
2022/07/20 06:06:00;;;;;;;8.90;4.40;;;;;;;;;;4977164;28;20062;-71
2022/07/20 06:08:26;;;;;;;10.77;3.70;;;;;;;;;;4976794;28;20477;-71
2022/07/20 06:10:52;;;;;;;5.35;3.28;;;;;;;;;;4977067;28;20026;-71
2022/07/20 06:13:18;;;;;;;6.78;3.05;;;;;;;;;;4976696;28;20031;-71
2022/07/20 06:15:44;;;;;;;6.85;2.67;;;;;;;;;;4976694;28;20026;-71
2022/07/20 06:18:10;;;;;;;5.28;2.88;;;;;;;;;;4976648;28;20019;-71
2022/07/20 06:20:36;;;;;;;6.57;2.75;;;;;;;;;;4976594;28;20018;-70
2022/07/20 06:23:02;;;;;;;4.65;2.30;;;;;;;;;;4976561;28;20490;-71
2022/07/20 06:25:28;;;;;;;9.70;2.95;;;;;;;;;;4959233;28;20086;-71
2022/07/20 06:27:57;;;;;;;4.22;2.40;;;;;;;;;;4976515;28;20030;-72
2022/07/20 06:30:23;;;;;;;4.00;2.20;;;;;;;;;;4976461;28;20489;-71
2022/07/20 06:32:49;;;;;;;6.10;3.75;;;;;;;;;;4976366;28;20037;-72
2022/07/20 06:35:16;;;;;;;4.30;1.90;;;;;;;;;;4976351;28;20022;-71
2022/07/20 06:37:42;;;;;;;6.22;2.20;;;;;;;;;;4958979;28;20027;-71
2022/07/20 06:40:08;;;;;;;5.50;2.50;;;;;;;;;;4976773;28;20029;-71
2022/07/20 06:42:35;;;;;;;2.85;2.10;;;;;;;;;;4976233;28;20540;-72
2022/07/20 06:45:01;;;;;;;6.57;2.13;;;;;;;;;;4976226;28;20034;-71
2022/07/20 06:47:27;;;;;;;5.15;2.10;;;;;;;;;;4975538;28;20038;-71
2022/07/20 06:49:53;;;;;;;4.75;2.20;;;;;;;;;;4975616;28;20030;-71
2022/07/20 06:52:19;;;;;;;4.53;2.17;;;;;;;;;;4975989;28;20030;-71
2022/07/20 06:54:45;;;;;;;2.47;1.80;;;;;;;;;;4976282;28;20057;-72
2022/07/20 06:57:13;;;;;;;5.43;2.20;;;;;;;;;;4975972;28;20544;-72
2022/07/20 06:59:39;;;;;;;5.20;2.10;;;;;;;;;;4975862;28;20069;-72
2022/07/20 07:02:05;;;;;;;3.22;1.88;;;;;;;;;;4976085;28;20380;-71
2022/07/20 07:04:31;;;;;;;3.17;1.52;;;;;;;;;;4975345;28;20047;-71
2022/07/20 07:06:58;;;;;;;5.40;2.00;;;;;;;;;;4975717;28;20031;-71
2022/07/20 07:09:24;;;;;;;4.65;2.08;;;;;;;;;;4975746;28;20445;-71
2022/07/20 07:11:50;;;;;;;6.57;2.10;;;;;;;;;;4975684;28;20027;-70
2022/07/20 07:14:16;;;;;;;6.47;2.35;;;;;;;;;;4975604;28;20030;-72
2022/07/20 07:16:42;;;;;;;6.47;2.13;;;;;;;;;;4975588;28;20523;-71
2022/07/20 07:19:09;;;;;;;5.07;1.80;;;;;;;;;;4975540;28;20027;-72
2022/07/20 07:21:35;;;;;;;5.93;2.13;;;;;;;;;;4975747;28;20425;-71
2022/07/20 07:24:01;;;;;;;3.95;1.83;;;;;;;;;;4975413;28;20030;-72
2022/07/20 07:26:27;;;;;;;5.80;2.30;;;;;;;;;;4975428;28;20034;-72
2022/07/20 07:28:53;;;;;;;5.80;2.17;;;;;;;;;;4975621;28;20535;-71
2022/07/20 07:31:19;;;;;;;3.83;2.10;;;;;;;;;;4975595;28;20106;-73
2022/07/20 07:33:46;;;;;;;8.10;2.10;;;;;;;;;;4975447;28;20109;-72
2022/07/20 07:36:12;;;;;;;7.22;2.50;;;;;;;;;;4975229;28;20497;-71
2022/07/20 07:38:38;;;;;;;5.53;2.05;;;;;;;;;;4975972;28;20092;-73
2022/07/20 07:41:04;;;;;;;6.47;2.00;;;;;;;;;;4975137;28;20028;-72
2022/07/20 07:43:30;;;;;;;4.63;1.92;;;;;;;;;;4975399;28;20034;-72
2022/07/20 07:45:57;;;;;;;4.22;1.60;;;;;;;;;;4975380;28;20393;-71
2022/07/20 07:48:23;;;;;;;6.57;1.88;;;;;;;;;;4975040;28;20030;-71
2022/07/20 07:50:49;;;;;;;2.75;1.70;;;;;;;;;;4974992;28;20401;-71
2022/07/20 07:53:15;;;;;;;3.67;1.98;;;;;;;;;;4975144;28;20035;-71
2022/07/20 07:55:41;;;;;;;3.83;1.90;;;;;;;;;;4974871;28;20030;-72
2022/07/20 07:58:08;;;;;;;5.40;2.08;;;;;;;;;;4974887;28;20033;-70
2022/07/20 08:00:35;;;;;;;2.67;1.60;;;;;;;;;;4974580;28;20077;-71
2022/07/20 08:03:02;;;;;;;6.40;2.00;;;;;;;;;;4974580;28;20513;-71
2022/07/20 08:05:28;;;;;;;5.43;2.08;;;;;;;;;;4975028;28;20049;-71
2022/07/20 08:07:54;;;;;;;4.38;1.85;;;;;;;;;;4974701;28;20478;-71
2022/07/20 08:10:20;;;;;;;6.05;1.77;;;;;;;;;;4974684;28;20070;-78
2022/07/20 08:12:47;;;;;;;3.50;1.50;;;;;;;;;;4974573;28;20038;-70
2022/07/20 08:15:13;;;;;;;6.38;2.08;;;;;;;;;;4974900;28;20031;-69
2022/07/20 08:17:40;;;;;;;4.70;1.92;;;;;;;;;;4974569;28;20030;-69
2022/07/20 08:20:06;;;;;;;4.90;2.13;;;;;;;;;;4974532;28;20161;-69
2022/07/20 08:22:33;;;;;;;5.97;2.58;;;;;;;;;;4974477;28;20053;-69
2022/07/20 08:24:59;;;;;;;9.23;2.20;;;;;;;;;;4974526;28;20027;-69
2022/07/20 08:27:25;;;;;;;4.15;1.70;;;;;;;;;;4974761;28;20068;-69
2022/07/20 08:29:53;;;;;;;7.80;2.10;;;;;;;;;;4974467;28;20029;-69
2022/07/20 08:32:21;;;;;;;5.45;2.10;;;;;;;;;;4974360;28;20118;-69
2022/07/20 08:34:47;;;;;;;5.78;2.13;;;;;;;;;;4974460;28;20495;-69
2022/07/20 08:37:13;;;;;;;13.70;2.08;;;;;;;;;;4974355;28;20030;-69
2022/07/20 08:39:39;;;;;;;6.07;2.08;;;;;;;;;;4957578;28;20477;-69
2022/07/20 08:42:05;;;;;;;4.97;1.90;;;;;;;;;;4974595;28;20022;-69
2022/07/20 08:44:31;;;;;;;5.90;2.10;;;;;;;;;;4974320;28;20027;-69
2022/07/20 08:46:58;;;;;;;6.03;1.98;;;;;;;;;;4974551;28;20086;-69
2022/07/20 08:49:24;;;;;;;4.85;1.67;;;;;;;;;;4974494;28;20377;-69
2022/07/20 08:51:50;;;;;;;4.45;2.00;;;;;;;;;;4974276;28;20076;-69
2022/07/20 08:54:16;;;;;;;6.20;1.90;;;;;;;;;;4974187;28;20400;-69
2022/07/20 08:56:42;;;;;;;2.97;1.83;;;;;;;;;;4974244;28;20393;-69
2022/07/20 08:59:08;;;;;;;5.50;2.53;;;;;;;;;;4974181;28;20026;-69
2022/07/20 09:01:34;;;;;;;7.75;2.75;;;;;;;;;;4974126;28;20027;-69
2022/07/20 09:04:10;;;;;;;7.25;2.17;;;;;;;;;;4973925;28;20506;-69
2022/07/20 09:06:36;;;;;;;2.20;1.65;;;;;;;;;;4974405;28;20074;-69
2022/07/20 09:09:04;;;;;;;2.80;1.92;;;;;;;;;;4974139;28;20027;-69
2022/07/20 09:11:31;;;;;;;3.80;2.00;;;;;;;;;;4974793;28;20519;-69
2022/07/20 09:13:57;;;;;;;4.72;1.80;;;;;;;;;;4960106;28;20035;-69
2022/07/20 09:16:33;;;;;;;2.90;1.75;;;;;;;;;;4977869;28;20507;-69
2022/07/20 09:18:59;;;;;;;4.05;1.83;;;;;;;;;;4978114;28;20104;-69
2022/07/20 09:21:29;;;;;;;3.50;1.75;;;;;;;;;;4977987;28;20027;-69
2022/07/20 09:23:56;;;;;;;4.63;1.90;;;;;;;;;;4977946;28;20081;-70
2022/07/20 09:26:24;;;;;;;5.70;1.90;;;;;;;;;;4977730;28;20026;-70
2022/07/20 09:28:53;;;;;;;7.90;1.90;;;;;;;;;;4977830;28;20034;-69
2022/07/20 09:31:19;;;;;;;;;;;;;;;;;;4977997;28;20031;-69
2022/07/20 09:33:49;;;;;;;5.45;2.22;;;;;;;;;;4977449;28;19910;-69
2022/07/20 09:36:15;;;;;;;3.38;1.60;;;;;;;;;;4977507;28;20023;-69
2022/07/20 09:38:42;;;;;;;4.72;1.80;;;;;;;;;;4978185;28;20413;-69
2022/07/20 09:41:25;;;;;;;4.93;1.83;;;;;;;;;;4977449;28;20027;-70
2022/07/20 09:43:51;;;;;;;5.30;1.83;;;;;;;;;;4977324;28;20501;-69
2022/07/20 09:46:18;;;;;;;3.35;1.52;;;;;;;;;;4977576;28;20062;-69
2022/07/20 09:48:49;;;;;;;7.05;2.28;;;;;;;;;;4977230;28;20107;-69
2022/07/20 09:51:22;;;;;;;2.90;1.52;;;;;;;;;;4977758;28;20026;-70
2022/07/20 09:53:48;;;;;;;3.00;2.05;;;;;;;;;;4977609;28;20081;-70
2022/07/20 09:56:18;;;;;;;5.50;1.90;;;;;;;;;;4977148;28;20027;-69
2022/07/20 09:58:49;;;;;;;3.97;2.00;;;;;;;;;;4977402;28;20030;-69
2022/07/20 10:01:20;;;;;;;3.72;1.88;;;;;;;;;;4976921;28;20027;-69
2022/07/20 10:03:47;;;;;;;6.28;1.85;;;;;;;;;;4976868;28;20584;-70
2022/07/20 10:06:13;;;;;;;6.30;2.53;;;;;;;;;;4976908;28;20027;-69
2022/07/20 10:08:40;;;;;;;6.20;2.15;;;;;;;;;;4976892;28;20113;-69
2022/07/20 10:11:06;;;;;;;5.68;2.20;;;;;;;;;;4976814;28;20037;-70
2022/07/20 10:13:33;;;;;;;6.03;2.20;;;;;;;;;;4976765;28;20075;-70
2022/07/20 10:16:04;;;;;;;5.05;2.25;;;;;;;;;;4976789;28;20027;-70
2022/07/20 10:18:30;;;;;;;5.10;2.15;;;;;;;;;;4977021;28;20473;-70
2022/07/20 10:20:56;;;;;;;5.53;2.33;;;;;;;;;;4976663;28;20031;-69
2022/07/20 10:23:22;;;;;;;4.93;2.55;;;;;;;;;;4976388;28;20026;-70
2022/07/20 10:25:48;;;;;;;5.53;2.50;;;;;;;;;;4976639;28;20045;-70
2022/07/20 10:28:23;;;;;;;5.85;2.33;;;;;;;;;;4976565;28;20027;-69
2022/07/20 10:30:53;;;;;;;5.70;2.38;;;;;;;;;;4959143;28;20027;-70
2022/07/20 10:33:20;;;;;;;5.88;2.30;;;;;;;;;;4976963;28;20448;-70
2022/07/20 10:35:47;;;;;;;6.50;2.47;;;;;;;;;;4976483;28;20055;-70
2022/07/20 10:38:17;;;;;;;4.22;2.33;;;;;;;;;;4976903;28;20026;-69
2022/07/20 10:44:05;;;;;;;5.90;2.90;;;;;;;;;;4975897;28;20427;-70
2022/07/20 10:46:33;;;;;;;7.13;2.60;;;;;;;;;;4976233;28;20033;-70
2022/07/20 10:48:59;;;;;;;7.05;2.50;;;;;;;;;;4976174;28;20102;-70
2022/07/20 10:51:25;;;;;;;4.43;2.45;;;;;;;;;;4976111;28;20057;-70
2022/07/20 10:53:51;;;;;;;5.43;2.80;;;;;;;;;;4976030;28;20019;-70
2022/07/20 10:56:28;;;;;;;5.57;2.88;;;;;;;;;;4958629;28;20037;-70
2022/07/20 10:58:58;;;;;;;5.10;3.13;;;;;;;;;;4976000;28;20081;-70
2022/07/20 11:01:24;;;;;;;10.52;3.25;;;;;;;;;;4958530;28;20034;-70
2022/07/20 11:03:50;;;;;;;6.93;3.30;;;;;;;;;;4975906;28;20047;-70
2022/07/20 11:06:16;;;;;;;9.65;3.50;;;;;;;;;;4975820;28;20436;-70
2022/07/20 11:08:44;;;;;;;6.70;3.85;;;;;;;;;;4975806;28;20027;-70
2022/07/20 11:11:17;;;;;;;10.10;3.78;;;;;;;;;;4976314;28;20026;-70
2022/07/20 11:13:43;;;;;;;6.28;3.75;;;;;;;;;;4975659;28;20031;-70
2022/07/20 11:16:09;;;;;;;7.25;4.47;;;;;;;;;;4975960;28;20492;-70
2022/07/20 11:18:36;;;;;;;6.78;4.30;;;;;;;;;;4975644;28;20023;-70
2022/07/20 11:21:06;;;;;;;6.35;4.15;;;;;;;;;;4976127;28;20073;-70
2022/07/20 11:23:42;;;;;;;8.25;3.58;;;;;;;;;;4975589;28;20077;-70
2022/07/20 11:26:09;;;;;;;7.13;4.70;;;;;;;;;;4975784;28;20110;-70
2022/07/20 11:28:38;;;;;;;7.40;4.10;;;;;;;;;;4975489;28;20034;-70
2022/07/20 11:31:05;;;;;;;7.97;4.25;;;;;;;;;;4975430;28;20122;-70
2022/07/20 11:33:35;;;;;;;8.02;4.75;;;;;;;;;;4957666;28;20023;-70
2022/07/20 11:36:03;;;;;;;8.73;4.60;;;;;;;;;;4975030;28;20158;-70
2022/07/20 11:38:35;;;;;;;7.38;4.07;;;;;;;;;;4975524;28;20019;-70
2022/07/20 11:41:02;;;;;;;7.15;4.47;;;;;;;;;;4975959;28;20023;-70
2022/07/20 11:43:28;;;;;;;8.75;5.25;;;;;;;;;;4975196;28;20053;-70
2022/07/20 11:45:54;;;;;;;6.82;4.60;;;;;;;;;;4975115;28;20030;-70
2022/07/20 11:48:22;;;;;;;9.10;4.97;;;;;;;;;;4975088;28;20026;-70
2022/07/20 11:50:48;;;;;;;8.93;4.82;;;;;;;;;;4975281;28;20033;-70
2022/07/20 11:53:23;;;;;;;8.00;4.90;;;;;;;;;;4975476;28;20030;-70
2022/07/20 11:55:49;;;;;;;9.18;5.45;;;;;;;;;;4957651;28;20035;-70
2022/07/20 11:58:15;;;;;;;9.13;5.45;;;;;;;;;;4974912;28;20027;-70
2022/07/20 12:00:42;;;;;;;10.93;5.20;;;;;;;;;;4974760;28;20362;-70
2022/07/20 12:03:08;;;;;;;11.45;5.05;;;;;;;;;;4974788;28;20097;-70
2022/07/20 12:05:34;;;;;;;7.95;4.88;;;;;;;;;;4974835;28;20037;-70
2022/07/20 12:08:13;;;;;;;9.00;4.43;;;;;;;;;;4974781;28;20543;-70
2022/07/20 12:10:42;;;;;;;8.23;5.40;;;;;;;;;;4975022;28;20030;-70
2022/07/20 12:13:09;;;;;;;10.38;5.60;;;;;;;;;;4957310;28;20034;-70
2022/07/20 12:15:36;;;;;;;9.32;5.43;;;;;;;;;;4974646;28;20397;-70
2022/07/20 12:18:02;;;;;;;9.60;4.68;;;;;;;;;;4974896;28;20098;-70
2022/07/20 12:20:28;;;;;;;8.05;4.90;;;;;;;;;;4974609;28;20050;-70
2022/07/20 12:22:58;;;;;;;11.02;5.03;;;;;;;;;;4975087;28;20027;-70
2022/07/20 12:25:37;;;;;;;9.48;5.40;;;;;;;;;;4974839;28;20088;-70
2022/07/20 12:28:03;;;;;;;9.98;5.38;;;;;;;;;;4974544;28;20027;-70
2022/07/20 12:30:31;;;;;;;9.93;5.68;;;;;;;;;;4957187;28;20027;-70
2022/07/20 12:33:03;;;;;;;7.78;5.45;;;;;;;;;;4974633;28;20027;-70
2022/07/20 12:35:29;;;;;;;10.85;6.03;;;;;;;;;;4975012;28;20027;-70
2022/07/20 12:37:59;;;;;;;9.77;5.38;;;;;;;;;;4974706;28;20018;-70
2022/07/20 12:40:30;;;;;;;9.82;6.45;;;;;;;;;;4974885;28;20027;-70
2022/07/20 12:42:57;;;;;;;8.13;5.35;;;;;;;;;;4974883;28;20074;-70
2022/07/20 12:45:23;;;;;;;9.07;5.70;;;;;;;;;;4975483;28;20035;-70
2022/07/20 12:47:49;;;;;;;26.15;6.80;;;;;;;;;;4978377;28;20469;-70
2022/07/20 12:50:15;;;;;;;10.45;5.57;;;;;;;;;;4978335;28;20037;-70
2022/07/20 12:52:41;;;;;;;12.05;6.22;;;;;;;;;;4960883;28;20031;-70
2022/07/20 12:55:07;;;;;;;11.13;5.93;;;;;;;;;;4978545;28;20025;-70
2022/07/20 12:57:33;;;;;;;8.60;5.80;;;;;;;;;;4978457;28;20505;-70
2022/07/20 13:00:00;;;;;;;10.02;6.15;;;;;;;;;;4978070;28;20081;-70
2022/07/20 13:02:26;;;;;;;10.52;5.82;;;;;;;;;;4977933;28;20050;-70
2022/07/20 13:04:52;;;;;;;9.68;5.80;;;;;;;;;;4977764;28;20035;-70
2022/07/20 13:07:18;;;;;;;10.13;5.90;;;;;;;;;;4978017;28;20030;-70
2022/07/20 13:09:44;;;;;;;8.00;6.05;;;;;;;;;;4977984;28;20027;-70
2022/07/20 13:12:10;;;;;;;11.35;6.28;;;;;;;;;;4978263;28;20030;-70
2022/07/20 13:14:35;;;;;;;10.02;6.18;;;;;;;;;;4977803;28;20481;-70
2022/07/20 13:17:02;;;;;;;8.43;5.63;;;;;;;;;;4977892;28;20038;-70
2022/07/20 13:19:28;;;;;;;12.82;6.15;;;;;;;;;;4978080;28;20124;-70
2022/07/20 13:21:54;;;;;;;9.70;5.40;;;;;;;;;;4977746;28;20023;-70
2022/07/20 13:24:20;;;;;;;10.02;6.05;;;;;;;;;;4977703;28;20400;-70
2022/07/20 13:26:46;;;;;;;12.93;6.60;;;;;;;;;;4977614;28;20107;-70
2022/07/20 13:29:13;;;;;;;11.50;5.63;;;;;;;;;;4978151;28;20030;-70
2022/07/20 13:31:39;;;;;;;12.15;6.50;;;;;;;;;;4977827;28;20027;-70
2022/07/20 13:34:05;;;;;;;7.15;6.00;;;;;;;;;;4977720;28;20035;-70
2022/07/20 13:36:32;;;;;;;9.30;6.22;;;;;;;;;;4977502;28;20042;-70
2022/07/20 13:38:58;;;;;;;8.73;5.90;;;;;;;;;;4977680;28;20030;-70
2022/07/20 13:41:25;;;;;;;8.75;6.25;;;;;;;;;;4977944;28;20094;-70
2022/07/20 13:43:51;;;;;;;8.00;6.07;;;;;;;;;;4977377;28;20031;-70
2022/07/20 13:46:18;;;;;;;8.93;5.93;;;;;;;;;;4977365;28;20029;-70
2022/07/20 13:48:44;;;;;;;9.02;6.13;;;;;;;;;;4977259;28;20394;-70
2022/07/20 13:51:10;;;;;;;8.10;5.80;;;;;;;;;;4977224;28;20027;-70
2022/07/20 13:53:37;;;;;;;9.30;5.95;;;;;;;;;;4977133;28;20485;-70
2022/07/20 13:56:04;;;;;;;12.98;5.70;;;;;;;;;;4977191;28;20023;-70
2022/07/20 13:58:30;;;;;;;6.82;5.22;;;;;;;;;;4976700;28;20034;-70
2022/07/20 14:00:56;;;;;;;8.57;6.18;;;;;;;;;;4976840;28;20019;-70
2022/07/20 14:03:22;;;;;;;10.02;5.95;;;;;;;;;;4976842;28;20135;-70
2022/07/20 14:05:48;;;;;;;9.40;5.90;;;;;;;;;;4976947;28;20029;-70
2022/07/20 14:08:14;;;;;;;9.88;6.25;;;;;;;;;;4976914;28;20038;-70
2022/07/20 14:10:40;;;;;;;9.25;6.18;;;;;;;;;;4976937;28;20039;-70
2022/07/20 14:13:06;;;;;;;9.82;6.10;;;;;;;;;;4976803;28;20031;-70
2022/07/20 14:15:32;;;;;;;7.43;5.65;;;;;;;;;;4977307;28;20030;-70
2022/07/20 14:17:58;;;;;;;8.93;5.53;;;;;;;;;;4977062;28;20027;-70
2022/07/20 14:20:24;;;;;;;8.65;6.07;;;;;;;;;;4977001;28;20453;-70
2022/07/20 14:22:50;;;;;;;7.75;5.30;;;;;;;;;;4976677;28;20038;-70
2022/07/20 14:25:17;;;;;;;8.77;6.00;;;;;;;;;;4976932;28;20026;-70
2022/07/20 14:27:43;;;;;;;9.25;6.38;;;;;;;;;;4976627;28;20041;-70
2022/07/20 14:30:09;;;;;;;9.85;6.40;;;;;;;;;;4976843;28;20031;-70
2022/07/20 14:32:35;;;;;;;10.68;5.95;;;;;;;;;;4976734;28;20027;-70
2022/07/20 14:35:01;;;;;;;9.10;6.25;;;;;;;;;;4976456;28;20153;-70
2022/07/20 14:37:27;;;;;;;10.73;6.25;;;;;;;;;;4976432;28;20504;-70
2022/07/20 14:39:53;;;;;;;9.73;6.45;;;;;;;;;;4977168;28;20031;-70
2022/07/20 14:42:19;;;;;;;7.35;6.18;;;;;;;;;;4976324;28;20034;-70